EXS5TV LCLK-EGNM
Flight info
| Callsign | EXS5TV |
|---|---|
| Flight time | 4h 36m |
| Altitude | 36000 |
| Route | PHA M31 GENOS DCT PEDER DCT EVENO UM601 RDS UL609 MES DCT GIKAS DCT FSK UL608 DISOR DCT LONTA UL608 DOLEV DCT MITNO DCT YULHU DCT AGLIB DCT SIMBA DCT GASKA DCT MASEK DCT ARPEG DCT PETIK DCT RAVLO Y70 BATLI DCT LBA |
| Aircraft | B738/M-SDE2E3FGHIRWXY/LB1 |
Departure
| Time | 2026-05-04 19:49 |
|---|---|
| Airport | Larnaca International Airport (LCLK) |
Arrival
| Time | 2026-05-05 00:25 |
|---|---|
| Airport | Leeds Bradford Airport (EGNM) |
| Time | Latitude | Longitude | Altitude | Speed | Heading |
|---|---|---|---|---|---|
| 2026-05-04 19:07 | 34.86998 | 33.61113 | 19 ft | 0 kts | 226° |
| 2026-05-04 19:36 | 34.87006 | 33.61122 | 19 ft | 4 kts | 224° |
| 2026-05-04 19:36 | 34.87024 | 33.61145 | 22 ft | 4 kts | 238° |
| 2026-05-04 19:36 | 34.87032 | 33.61168 | 21 ft | 4 kts | 244° |
| 2026-05-04 19:36 | 34.87044 | 33.61184 | 20 ft | 4 kts | 159° |
| 2026-05-04 19:37 | 34.87063 | 33.61166 | 20 ft | 4 kts | 135° |
| 2026-05-04 19:37 | 34.87067 | 33.61160 | 19 ft | 0 kts | 135° |
| 2026-05-04 19:40 | 34.87063 | 33.61166 | 21 ft | 2 kts | 135° |
| 2026-05-04 19:40 | 34.87046 | 33.61187 | 20 ft | 5 kts | 133° |
| 2026-05-04 19:40 | 34.87014 | 33.61224 | 21 ft | 8 kts | 136° |
| 2026-05-04 19:40 | 34.86970 | 33.61277 | 19 ft | 10 kts | 134° |
| 2026-05-04 19:41 | 34.86918 | 33.61341 | 16 ft | 9 kts | 137° |
| 2026-05-04 19:41 | 34.86883 | 33.61405 | 17 ft | 9 kts | 95° |
| 2026-05-04 19:41 | 34.86917 | 33.61472 | 17 ft | 11 kts | 46° |
| 2026-05-04 19:41 | 34.86981 | 33.61551 | 17 ft | 15 kts | 44° |
| 2026-05-04 19:42 | 34.87054 | 33.61638 | 20 ft | 14 kts | 44° |
| 2026-05-04 19:42 | 34.87124 | 33.61720 | 20 ft | 14 kts | 47° |
| 2026-05-04 19:42 | 34.87188 | 33.61802 | 19 ft | 13 kts | 43° |
| 2026-05-04 19:42 | 34.87251 | 33.61879 | 22 ft | 13 kts | 45° |
| 2026-05-04 19:43 | 34.87315 | 33.61958 | 20 ft | 15 kts | 45° |
| 2026-05-04 19:43 | 34.87398 | 33.62062 | 17 ft | 19 kts | 45° |
| 2026-05-04 19:43 | 34.87489 | 33.62172 | 17 ft | 18 kts | 45° |
| 2026-05-04 19:43 | 34.87577 | 33.62278 | 15 ft | 17 kts | 46° |
| 2026-05-04 19:44 | 34.87660 | 33.62382 | 17 ft | 17 kts | 44° |
| 2026-05-04 19:44 | 34.87742 | 33.62480 | 17 ft | 16 kts | 44° |
| 2026-05-04 19:44 | 34.87820 | 33.62575 | 18 ft | 16 kts | 44° |
| 2026-05-04 19:44 | 34.87894 | 33.62668 | 20 ft | 15 kts | 46° |
| 2026-05-04 19:45 | 34.87968 | 33.62756 | 19 ft | 14 kts | 44° |
| 2026-05-04 19:45 | 34.88036 | 33.62839 | 20 ft | 14 kts | 44° |
| 2026-05-04 19:45 | 34.88103 | 33.62919 | 19 ft | 13 kts | 43° |
| 2026-05-04 19:45 | 34.88165 | 33.62996 | 18 ft | 13 kts | 46° |
| 2026-05-04 19:46 | 34.88226 | 33.63072 | 16 ft | 12 kts | 45° |
| 2026-05-04 19:46 | 34.88287 | 33.63145 | 18 ft | 12 kts | 44° |
| 2026-05-04 19:46 | 34.88346 | 33.63216 | 16 ft | 12 kts | 44° |
| 2026-05-04 19:46 | 34.88403 | 33.63286 | 16 ft | 11 kts | 48° |
| 2026-05-04 19:47 | 34.88444 | 33.63364 | 17 ft | 11 kts | 92° |
| 2026-05-04 19:47 | 34.88402 | 33.63440 | 19 ft | 11 kts | 131° |
| 2026-05-04 19:47 | 34.88377 | 33.63520 | 18 ft | 10 kts | 103° |
| 2026-05-04 19:47 | 34.88335 | 33.63562 | 17 ft | 10 kts | 208° |
| 2026-05-04 19:48 | 34.88276 | 33.63494 | 15 ft | 18 kts | 226° |
| 2026-05-04 19:48 | 34.88020 | 33.63176 | 17 ft | 88 kts | 225° |
| 2026-05-04 19:48 | 34.87434 | 33.62465 | 15 ft | 148 kts | 226° |
| 2026-05-04 19:48 | 34.86630 | 33.61493 | 401 ft | 167 kts | 225° |
| 2026-05-04 19:49 | 34.85823 | 33.60507 | 1258 ft | 165 kts | 224° |
| 2026-05-04 19:49 | 34.85006 | 33.59490 | 1881 ft | 169 kts | 229° |
| 2026-05-04 19:49 | 34.84154 | 33.58372 | 2226 ft | 193 kts | 230° |
| 2026-05-04 19:49 | 34.83206 | 33.57127 | 2495 ft | 211 kts | 230° |
| 2026-05-04 19:50 | 34.82166 | 33.55770 | 2754 ft | 231 kts | 230° |
| 2026-05-04 19:50 | 34.81021 | 33.54281 | 3104 ft | 248 kts | 230° |
| 2026-05-04 19:50 | 34.79827 | 33.52740 | 3792 ft | 252 kts | 230° |
| 2026-05-04 19:50 | 34.78612 | 33.51175 | 4469 ft | 258 kts | 230° |
| 2026-05-04 19:51 | 34.77367 | 33.49573 | 5143 ft | 262 kts | 230° |
| 2026-05-04 19:51 | 34.76113 | 33.47964 | 5896 ft | 263 kts | 230° |
| 2026-05-04 19:51 | 34.74845 | 33.46338 | 6638 ft | 264 kts | 229° |
| 2026-05-04 19:51 | 34.73574 | 33.44707 | 7312 ft | 268 kts | 230° |
| 2026-05-04 19:52 | 34.72706 | 33.43593 | 7789 ft | 269 kts | 230° |
| 2026-05-04 19:52 | 34.71432 | 33.41963 | 8511 ft | 270 kts | 230° |
| 2026-05-04 19:52 | 34.70135 | 33.40302 | 9222 ft | 272 kts | 230° |
| 2026-05-04 19:52 | 34.68848 | 33.38609 | 9918 ft | 273 kts | 237° |
| 2026-05-04 19:53 | 34.68059 | 33.36537 | 10358 ft | 277 kts | 260° |
| 2026-05-04 19:53 | 34.67977 | 33.34132 | 10526 ft | 295 kts | 273° |
| 2026-05-04 19:53 | 34.68090 | 33.31557 | 10684 ft | 315 kts | 274° |
| 2026-05-04 19:53 | 34.68220 | 33.28843 | 11008 ft | 327 kts | 274° |
| 2026-05-04 19:54 | 34.68348 | 33.26063 | 11615 ft | 330 kts | 273° |
| 2026-05-04 19:54 | 34.68469 | 33.23268 | 12326 ft | 331 kts | 273° |
| 2026-05-04 19:54 | 34.68585 | 33.20468 | 13027 ft | 333 kts | 272° |
| 2026-05-04 19:54 | 34.68698 | 33.17642 | 13723 ft | 336 kts | 272° |
| 2026-05-04 19:55 | 34.68811 | 33.14799 | 14331 ft | 338 kts | 272° |
| 2026-05-04 19:55 | 34.68924 | 33.11918 | 14889 ft | 344 kts | 272° |
| 2026-05-04 19:55 | 34.69037 | 33.09004 | 15500 ft | 347 kts | 272° |
| 2026-05-04 19:55 | 34.69151 | 33.06069 | 16124 ft | 349 kts | 273° |
| 2026-05-04 19:56 | 34.69266 | 33.03107 | 16738 ft | 353 kts | 273° |
| 2026-05-04 19:56 | 34.69381 | 33.00118 | 17341 ft | 356 kts | 273° |
| 2026-05-04 19:56 | 34.69496 | 32.97103 | 17939 ft | 359 kts | 273° |
| 2026-05-04 19:56 | 34.69611 | 32.94056 | 18483 ft | 362 kts | 273° |
| 2026-05-04 19:57 | 34.69727 | 32.90983 | 19007 ft | 365 kts | 273° |
| 2026-05-04 19:57 | 34.69841 | 32.87929 | 19520 ft | 368 kts | 273° |
| 2026-05-04 19:57 | 34.69957 | 32.84816 | 20028 ft | 371 kts | 273° |
| 2026-05-04 19:57 | 34.70073 | 32.81679 | 20539 ft | 373 kts | 273° |
| 2026-05-04 19:58 | 34.70191 | 32.78470 | 21033 ft | 376 kts | 273° |
| 2026-05-04 19:58 | 34.70306 | 32.75320 | 21504 ft | 380 kts | 273° |
| 2026-05-04 19:58 | 34.70423 | 32.72093 | 21981 ft | 383 kts | 272° |
| 2026-05-04 19:58 | 34.70540 | 32.68854 | 22456 ft | 385 kts | 272° |
| 2026-05-04 19:59 | 34.70660 | 32.65587 | 22927 ft | 388 kts | 272° |
| 2026-05-04 19:59 | 34.70780 | 32.62295 | 23371 ft | 391 kts | 272° |
| 2026-05-04 19:59 | 34.70901 | 32.58979 | 23754 ft | 395 kts | 272° |
| 2026-05-04 19:59 | 34.71022 | 32.55629 | 24117 ft | 398 kts | 272° |
| 2026-05-04 20:00 | 34.71142 | 32.52264 | 24512 ft | 399 kts | 272° |
| 2026-05-04 20:00 | 34.71211 | 32.48877 | 24902 ft | 401 kts | 269° |
| 2026-05-04 20:00 | 34.71087 | 32.45484 | 25263 ft | 404 kts | 267° |
| 2026-05-04 20:00 | 34.70877 | 32.42073 | 25612 ft | 406 kts | 266° |
| 2026-05-04 20:01 | 34.70648 | 32.38647 | 25952 ft | 408 kts | 266° |
| 2026-05-04 20:01 | 34.70426 | 32.35197 | 26284 ft | 410 kts | 266° |
| 2026-05-04 20:01 | 34.70216 | 32.31731 | 26629 ft | 412 kts | 267° |
| 2026-05-04 20:01 | 34.70016 | 32.28243 | 26910 ft | 416 kts | 267° |
| 2026-05-04 20:02 | 34.69823 | 32.24733 | 27246 ft | 417 kts | 267° |
| 2026-05-04 20:02 | 34.69630 | 32.21199 | 27583 ft | 419 kts | 267° |
| 2026-05-04 20:02 | 34.69441 | 32.17713 | 27902 ft | 421 kts | 267° |
| 2026-05-04 20:02 | 34.69244 | 32.14109 | 28212 ft | 423 kts | 267° |
| 2026-05-04 20:03 | 34.69047 | 32.10537 | 28510 ft | 425 kts | 267° |
| 2026-05-04 20:03 | 34.68851 | 32.06998 | 28805 ft | 426 kts | 268° |
| 2026-05-04 20:03 | 34.68651 | 32.03388 | 28971 ft | 431 kts | 268° |
| 2026-05-04 20:03 | 34.68446 | 31.99728 | 29174 ft | 435 kts | 268° |
| 2026-05-04 20:04 | 34.68244 | 31.96062 | 29484 ft | 435 kts | 269° |
| 2026-05-04 20:04 | 34.68382 | 31.92396 | 29768 ft | 435 kts | 280° |
| 2026-05-04 20:04 | 34.69057 | 31.88820 | 30041 ft | 435 kts | 287° |
| 2026-05-04 20:04 | 34.70133 | 31.85384 | 30276 ft | 436 kts | 296° |
| 2026-05-04 20:05 | 34.71630 | 31.82175 | 30582 ft | 435 kts | 300° |
| 2026-05-04 20:05 | 34.73191 | 31.79027 | 30933 ft | 433 kts | 300° |
| 2026-05-04 20:05 | 34.74754 | 31.75896 | 31217 ft | 433 kts | 300° |
| 2026-05-04 20:05 | 34.76312 | 31.72764 | 31459 ft | 434 kts | 300° |
| 2026-05-04 20:06 | 34.77867 | 31.69612 | 31752 ft | 433 kts | 300° |
| 2026-05-04 20:06 | 34.79406 | 31.66470 | 32081 ft | 431 kts | 299° |
| 2026-05-04 20:06 | 34.80934 | 31.63333 | 32385 ft | 430 kts | 299° |
| 2026-05-04 20:06 | 34.82455 | 31.60201 | 32667 ft | 430 kts | 298° |
| 2026-05-04 20:07 | 34.83972 | 31.57070 | 32945 ft | 429 kts | 298° |
| 2026-05-04 20:07 | 34.85482 | 31.53948 | 33235 ft | 428 kts | 298° |
| 2026-05-04 20:07 | 34.86990 | 31.50830 | 33523 ft | 427 kts | 298° |
| 2026-05-04 20:07 | 34.88499 | 31.47705 | 33754 ft | 428 kts | 298° |
| 2026-05-04 20:08 | 34.90006 | 31.44583 | 33978 ft | 428 kts | 298° |
| 2026-05-04 20:08 | 34.91509 | 31.41468 | 34206 ft | 427 kts | 298° |
| 2026-05-04 20:08 | 34.93017 | 31.38338 | 34411 ft | 426 kts | 298° |
| 2026-05-04 20:08 | 34.94517 | 31.35223 | 34595 ft | 427 kts | 298° |
| 2026-05-04 20:09 | 34.96020 | 31.32099 | 34787 ft | 427 kts | 298° |
| 2026-05-04 20:09 | 34.97520 | 31.28979 | 34991 ft | 426 kts | 298° |
| 2026-05-04 20:09 | 34.98997 | 31.25904 | 35180 ft | 426 kts | 298° |
| 2026-05-04 20:09 | 35.00490 | 31.22791 | 35361 ft | 426 kts | 298° |
| 2026-05-04 20:10 | 35.01992 | 31.19656 | 35490 ft | 427 kts | 298° |
| 2026-05-04 20:10 | 35.03490 | 31.16529 | 35660 ft | 427 kts | 298° |
| 2026-05-04 20:10 | 35.04986 | 31.13402 | 35871 ft | 426 kts | 298° |
| 2026-05-04 20:11 | 35.07986 | 31.07123 | 35925 ft | 429 kts | 298° |
| 2026-05-04 20:11 | 35.10988 | 31.00827 | 35937 ft | 429 kts | 299° |
| 2026-05-04 20:12 | 35.13992 | 30.94519 | 35926 ft | 430 kts | 299° |
| 2026-05-04 20:12 | 35.17001 | 30.88204 | 35929 ft | 431 kts | 300° |
| 2026-05-04 20:13 | 35.20757 | 30.82489 | 35941 ft | 433 kts | 311° |
| 2026-05-04 20:13 | 35.24917 | 30.77144 | 35935 ft | 434 kts | 311° |
| 2026-05-04 20:14 | 35.29039 | 30.71808 | 35924 ft | 434 kts | 311° |
| 2026-05-04 20:14 | 35.33191 | 30.66382 | 35927 ft | 434 kts | 311° |
| 2026-05-04 20:15 | 35.37281 | 30.61014 | 35926 ft | 434 kts | 311° |
| 2026-05-04 20:15 | 35.41391 | 30.55608 | 35926 ft | 433 kts | 311° |
| 2026-05-04 20:16 | 35.45500 | 30.50196 | 35929 ft | 433 kts | 311° |
| 2026-05-04 20:16 | 35.49609 | 30.44776 | 35930 ft | 434 kts | 311° |
| 2026-05-04 20:17 | 35.53722 | 30.39342 | 35924 ft | 434 kts | 311° |
| 2026-05-04 20:17 | 35.57833 | 30.33903 | 35927 ft | 434 kts | 311° |
| 2026-05-04 20:18 | 35.61939 | 30.28460 | 35927 ft | 435 kts | 311° |
| 2026-05-04 20:18 | 35.66053 | 30.22998 | 35926 ft | 435 kts | 311° |
| 2026-05-04 20:19 | 35.70166 | 30.17530 | 35925 ft | 435 kts | 311° |
| 2026-05-04 20:19 | 35.74278 | 30.12051 | 35927 ft | 435 kts | 311° |
| 2026-05-04 20:20 | 35.78383 | 30.06575 | 35926 ft | 435 kts | 311° |
| 2026-05-04 20:20 | 35.82310 | 30.00920 | 35923 ft | 434 kts | 303° |
| 2026-05-04 20:21 | 35.84970 | 29.94261 | 35930 ft | 435 kts | 289° |
| 2026-05-04 20:21 | 35.87787 | 29.83679 | 35930 ft | 436 kts | 289° |
| 2026-05-04 20:22 | 35.89697 | 29.76582 | 35932 ft | 436 kts | 289° |
| 2026-05-04 20:22 | 35.91627 | 29.69478 | 35943 ft | 437 kts | 289° |
| 2026-05-04 20:23 | 35.93554 | 29.62373 | 35943 ft | 437 kts | 289° |
| 2026-05-04 20:23 | 35.95478 | 29.55257 | 35949 ft | 437 kts | 289° |
| 2026-05-04 20:24 | 35.97397 | 29.48135 | 35948 ft | 437 kts | 289° |
| 2026-05-04 20:24 | 35.99308 | 29.41015 | 35950 ft | 437 kts | 289° |
| 2026-05-04 20:25 | 36.01205 | 29.33934 | 35961 ft | 436 kts | 289° |
| 2026-05-04 20:25 | 36.03106 | 29.26814 | 35962 ft | 436 kts | 289° |
| 2026-05-04 20:26 | 36.05004 | 29.19691 | 35971 ft | 436 kts | 290° |
| 2026-05-04 20:26 | 36.06893 | 29.12579 | 35979 ft | 435 kts | 290° |
| 2026-05-04 20:27 | 36.08778 | 29.05464 | 35979 ft | 435 kts | 290° |
| 2026-05-04 20:27 | 36.10656 | 28.98356 | 35990 ft | 435 kts | 290° |
| 2026-05-04 20:28 | 36.12532 | 28.91238 | 35977 ft | 435 kts | 290° |
| 2026-05-04 20:28 | 36.14401 | 28.84123 | 35995 ft | 435 kts | 290° |
| 2026-05-04 20:29 | 36.16267 | 28.77005 | 36001 ft | 435 kts | 290° |
| 2026-05-04 20:29 | 36.18131 | 28.69873 | 36000 ft | 436 kts | 290° |
| 2026-05-04 20:30 | 36.19992 | 28.62731 | 35997 ft | 436 kts | 290° |
| 2026-05-04 20:30 | 36.21853 | 28.55573 | 36004 ft | 437 kts | 290° |
| 2026-05-04 20:31 | 36.23711 | 28.48404 | 36011 ft | 437 kts | 290° |
| 2026-05-04 20:31 | 36.25552 | 28.41261 | 36015 ft | 438 kts | 290° |
| 2026-05-04 20:32 | 36.27400 | 28.34061 | 36002 ft | 439 kts | 290° |
| 2026-05-04 20:32 | 36.29245 | 28.26857 | 36025 ft | 439 kts | 290° |
| 2026-05-04 20:33 | 36.31090 | 28.19637 | 36021 ft | 439 kts | 290° |
| 2026-05-04 20:33 | 36.32986 | 28.12440 | 36017 ft | 438 kts | 295° |
| 2026-05-04 20:34 | 36.36091 | 28.06018 | 35999 ft | 434 kts | 310° |
| 2026-05-04 20:34 | 36.40331 | 28.00732 | 36021 ft | 432 kts | 318° |
| 2026-05-04 20:35 | 36.44769 | 27.95692 | 36025 ft | 432 kts | 318° |
| 2026-05-04 20:35 | 36.49191 | 27.90638 | 36022 ft | 432 kts | 318° |
| 2026-05-04 20:36 | 36.53593 | 27.85555 | 36027 ft | 432 kts | 317° |
| 2026-05-04 20:36 | 36.57242 | 27.81322 | 36034 ft | 432 kts | 317° |
| 2026-05-04 20:37 | 36.61629 | 27.76220 | 36035 ft | 432 kts | 317° |
| 2026-05-04 20:37 | 36.66015 | 27.71113 | 36047 ft | 432 kts | 318° |
| 2026-05-04 20:38 | 36.70399 | 27.66000 | 36044 ft | 431 kts | 318° |
| 2026-05-04 20:38 | 36.74778 | 27.60885 | 36051 ft | 432 kts | 318° |
| 2026-05-04 20:39 | 36.79162 | 27.55756 | 36045 ft | 432 kts | 318° |
| 2026-05-04 20:39 | 36.83538 | 27.50627 | 36048 ft | 431 kts | 318° |
| 2026-05-04 20:40 | 36.87908 | 27.45497 | 36053 ft | 431 kts | 318° |
| 2026-05-04 20:40 | 36.92269 | 27.40370 | 36058 ft | 430 kts | 318° |
| 2026-05-04 20:41 | 36.96627 | 27.35237 | 36058 ft | 430 kts | 318° |
| 2026-05-04 20:41 | 37.00983 | 27.30098 | 36070 ft | 430 kts | 318° |
| 2026-05-04 20:42 | 37.05335 | 27.24955 | 36065 ft | 430 kts | 318° |
| 2026-05-04 20:42 | 37.09658 | 27.19839 | 36073 ft | 431 kts | 318° |
| 2026-05-04 20:43 | 37.14008 | 27.14681 | 36066 ft | 431 kts | 318° |
| 2026-05-04 20:43 | 37.18359 | 27.09513 | 36076 ft | 431 kts | 318° |
| 2026-05-04 20:44 | 37.22713 | 27.04335 | 36075 ft | 432 kts | 318° |
| 2026-05-04 20:44 | 37.27102 | 26.99105 | 36074 ft | 433 kts | 318° |
| 2026-05-04 20:45 | 37.31437 | 26.93930 | 36076 ft | 433 kts | 318° |
| 2026-05-04 20:45 | 37.35810 | 26.88702 | 36075 ft | 434 kts | 318° |
| 2026-05-04 20:46 | 37.40200 | 26.83458 | 36074 ft | 434 kts | 319° |
| 2026-05-04 20:46 | 37.44748 | 26.78475 | 36076 ft | 434 kts | 321° |
| 2026-05-04 20:47 | 37.49365 | 26.73578 | 36079 ft | 433 kts | 321° |
| 2026-05-04 20:47 | 37.53951 | 26.68664 | 36081 ft | 433 kts | 321° |
| 2026-05-04 20:48 | 37.58525 | 26.63721 | 36083 ft | 433 kts | 321° |
| 2026-05-04 20:48 | 37.63093 | 26.58771 | 36083 ft | 433 kts | 321° |
| 2026-05-04 20:49 | 37.67653 | 26.53824 | 36075 ft | 432 kts | 320° |
| 2026-05-04 20:49 | 37.72202 | 26.48870 | 36086 ft | 432 kts | 320° |
| 2026-05-04 20:50 | 37.76739 | 26.43909 | 36090 ft | 431 kts | 320° |
| 2026-05-04 20:50 | 37.81278 | 26.38939 | 36090 ft | 431 kts | 320° |
| 2026-05-04 20:51 | 37.85809 | 26.33972 | 36086 ft | 431 kts | 320° |
| 2026-05-04 20:51 | 37.90345 | 26.29002 | 36091 ft | 431 kts | 320° |
| 2026-05-04 20:52 | 37.94886 | 26.24029 | 36083 ft | 431 kts | 320° |
| 2026-05-04 20:52 | 37.99423 | 26.19049 | 36095 ft | 431 kts | 320° |
| 2026-05-04 20:53 | 38.03927 | 26.14096 | 36097 ft | 432 kts | 320° |
| 2026-05-04 20:53 | 38.08459 | 26.09105 | 36098 ft | 432 kts | 320° |
| 2026-05-04 20:54 | 38.12999 | 26.04100 | 36103 ft | 432 kts | 320° |
| 2026-05-04 20:54 | 38.17534 | 25.99090 | 36107 ft | 432 kts | 320° |
| 2026-05-04 20:55 | 38.22076 | 25.94065 | 36085 ft | 433 kts | 319° |
| 2026-05-04 20:55 | 38.26653 | 25.89089 | 36098 ft | 432 kts | 322° |
| 2026-05-04 20:56 | 38.31420 | 25.84425 | 36098 ft | 433 kts | 323° |
| 2026-05-04 20:56 | 38.36233 | 25.79823 | 36101 ft | 433 kts | 323° |
| 2026-05-04 20:57 | 38.41030 | 25.75190 | 36105 ft | 433 kts | 323° |
| 2026-05-04 20:57 | 38.45822 | 25.70522 | 36097 ft | 433 kts | 323° |
| 2026-05-04 20:58 | 38.50597 | 25.65849 | 36098 ft | 433 kts | 323° |
| 2026-05-04 20:58 | 38.55372 | 25.61167 | 36091 ft | 433 kts | 323° |
| 2026-05-04 20:59 | 38.60150 | 25.56475 | 36112 ft | 433 kts | 323° |
| 2026-05-04 20:59 | 38.64921 | 25.51782 | 36091 ft | 433 kts | 323° |
| 2026-05-04 21:00 | 38.69700 | 25.47073 | 36097 ft | 433 kts | 323° |
| 2026-05-04 21:00 | 38.74475 | 25.42360 | 36103 ft | 434 kts | 323° |
| 2026-05-04 21:01 | 38.79225 | 25.37663 | 36095 ft | 434 kts | 323° |
| 2026-05-04 21:01 | 38.84005 | 25.32930 | 36078 ft | 435 kts | 323° |
| 2026-05-04 21:02 | 38.88821 | 25.28151 | 36093 ft | 435 kts | 323° |
| 2026-05-04 21:02 | 38.93577 | 25.23424 | 36102 ft | 436 kts | 322° |
| 2026-05-04 21:03 | 38.98373 | 25.18649 | 36094 ft | 436 kts | 322° |
| 2026-05-04 21:03 | 39.03200 | 25.13834 | 36093 ft | 436 kts | 322° |
| 2026-05-04 21:04 | 39.07963 | 25.09075 | 36090 ft | 436 kts | 322° |
| 2026-05-04 21:04 | 39.12790 | 25.04243 | 36090 ft | 436 kts | 322° |
| 2026-05-04 21:05 | 39.17554 | 24.99466 | 36077 ft | 437 kts | 322° |
| 2026-05-04 21:05 | 39.22348 | 24.94651 | 36089 ft | 437 kts | 323° |
| 2026-05-04 21:06 | 39.27141 | 24.89827 | 36086 ft | 437 kts | 323° |
| 2026-05-04 21:06 | 39.31937 | 24.84992 | 36086 ft | 438 kts | 323° |
| 2026-05-04 21:07 | 39.36737 | 24.80144 | 36085 ft | 438 kts | 322° |
| 2026-05-04 21:07 | 39.41540 | 24.75284 | 36081 ft | 438 kts | 322° |
| 2026-05-04 21:08 | 39.46336 | 24.70423 | 36082 ft | 438 kts | 322° |
| 2026-05-04 21:08 | 39.51136 | 24.65549 | 36079 ft | 438 kts | 322° |
| 2026-05-04 21:09 | 39.55939 | 24.60665 | 36089 ft | 438 kts | 322° |
| 2026-05-04 21:09 | 39.60727 | 24.55785 | 36078 ft | 438 kts | 322° |
| 2026-05-04 21:10 | 39.65519 | 24.50892 | 36087 ft | 438 kts | 322° |
| 2026-05-04 21:10 | 39.70303 | 24.45997 | 36081 ft | 438 kts | 322° |
| 2026-05-04 21:11 | 39.75059 | 24.41123 | 36085 ft | 438 kts | 322° |
| 2026-05-04 21:11 | 39.79867 | 24.36186 | 36074 ft | 438 kts | 322° |
| 2026-05-04 21:12 | 39.84617 | 24.31300 | 36084 ft | 438 kts | 322° |
| 2026-05-04 21:12 | 39.89395 | 24.26376 | 36080 ft | 438 kts | 322° |
| 2026-05-04 21:13 | 39.94171 | 24.21445 | 36084 ft | 438 kts | 322° |
| 2026-05-04 21:13 | 39.98954 | 24.16499 | 36084 ft | 439 kts | 322° |
| 2026-05-04 21:14 | 40.03734 | 24.11545 | 36083 ft | 439 kts | 322° |
| 2026-05-04 21:14 | 40.08514 | 24.06583 | 36072 ft | 439 kts | 322° |
| 2026-05-04 21:15 | 40.13295 | 24.01610 | 36080 ft | 438 kts | 322° |
| 2026-05-04 21:15 | 40.18061 | 23.96644 | 36085 ft | 438 kts | 322° |
| 2026-05-04 21:16 | 40.22826 | 23.91670 | 36081 ft | 438 kts | 322° |
| 2026-05-04 21:16 | 40.27591 | 23.86686 | 36082 ft | 438 kts | 322° |
| 2026-05-04 21:17 | 40.32350 | 23.81700 | 36084 ft | 438 kts | 322° |
| 2026-05-04 21:17 | 40.37106 | 23.76707 | 36084 ft | 438 kts | 322° |
| 2026-05-04 21:18 | 40.41863 | 23.71704 | 36078 ft | 438 kts | 322° |
| 2026-05-04 21:18 | 40.46617 | 23.66696 | 36088 ft | 438 kts | 322° |
| 2026-05-04 21:19 | 40.50568 | 23.62525 | 36087 ft | 439 kts | 322° |
| 2026-05-04 21:19 | 40.56102 | 23.56674 | 36098 ft | 439 kts | 322° |
| 2026-05-04 21:20 | 40.60859 | 23.51633 | 36089 ft | 440 kts | 322° |
| 2026-05-04 21:20 | 40.64850 | 23.47396 | 36096 ft | 440 kts | 322° |
| 2026-05-04 21:21 | 40.69583 | 23.42363 | 36079 ft | 440 kts | 322° |
| 2026-05-04 21:21 | 40.74335 | 23.37302 | 36090 ft | 439 kts | 322° |
| 2026-05-04 21:22 | 40.79085 | 23.32232 | 36095 ft | 439 kts | 322° |
| 2026-05-04 21:22 | 40.83827 | 23.27160 | 36093 ft | 439 kts | 322° |
| 2026-05-04 21:23 | 40.88566 | 23.22083 | 36097 ft | 439 kts | 321° |
| 2026-05-04 21:23 | 40.93308 | 23.16992 | 36090 ft | 439 kts | 321° |
| 2026-05-04 21:24 | 40.98056 | 23.11885 | 36096 ft | 439 kts | 321° |
| 2026-05-04 21:24 | 41.02794 | 23.06778 | 36098 ft | 438 kts | 321° |
| 2026-05-04 21:25 | 41.07519 | 23.01678 | 36094 ft | 438 kts | 321° |
| 2026-05-04 21:25 | 41.11926 | 22.96120 | 36104 ft | 438 kts | 311° |
| 2026-05-04 21:26 | 41.15808 | 22.89891 | 36099 ft | 438 kts | 311° |
| 2026-05-04 21:26 | 41.19690 | 22.83707 | 36095 ft | 438 kts | 311° |
| 2026-05-04 21:27 | 41.23609 | 22.77524 | 36088 ft | 438 kts | 311° |
| 2026-05-04 21:27 | 41.27592 | 22.71418 | 36100 ft | 436 kts | 314° |
| 2026-05-04 21:28 | 41.31692 | 22.65485 | 36108 ft | 435 kts | 314° |
| 2026-05-04 21:28 | 41.35789 | 22.59559 | 36110 ft | 434 kts | 314° |
| 2026-05-04 21:29 | 41.39854 | 22.53621 | 36116 ft | 434 kts | 314° |
| 2026-05-04 21:29 | 41.43910 | 22.47660 | 36117 ft | 434 kts | 314° |
| 2026-05-04 21:30 | 41.47956 | 22.41694 | 36122 ft | 433 kts | 314° |
| 2026-05-04 21:30 | 41.51968 | 22.35766 | 36120 ft | 433 kts | 314° |
| 2026-05-04 21:31 | 41.58017 | 22.26810 | 36125 ft | 432 kts | 314° |
| 2026-05-04 21:32 | 41.62043 | 22.20834 | 36126 ft | 432 kts | 314° |
| 2026-05-04 21:32 | 41.66063 | 22.14855 | 36125 ft | 433 kts | 314° |
| 2026-05-04 21:33 | 41.70084 | 22.08862 | 36122 ft | 432 kts | 313° |
| 2026-05-04 21:33 | 41.74089 | 22.02881 | 36128 ft | 432 kts | 313° |
| 2026-05-04 21:34 | 41.78091 | 21.96892 | 36124 ft | 431 kts | 313° |
| 2026-05-04 21:34 | 41.82086 | 21.90902 | 36127 ft | 430 kts | 313° |
| 2026-05-04 21:35 | 41.86077 | 21.84905 | 36128 ft | 430 kts | 313° |
| 2026-05-04 21:35 | 41.90055 | 21.78916 | 36116 ft | 430 kts | 313° |
| 2026-05-04 21:36 | 41.94005 | 21.72957 | 36134 ft | 429 kts | 313° |
| 2026-05-04 21:36 | 41.97974 | 21.66957 | 36129 ft | 430 kts | 313° |
| 2026-05-04 21:37 | 42.01940 | 21.60949 | 36128 ft | 430 kts | 313° |
| 2026-05-04 21:37 | 42.05909 | 21.54925 | 36130 ft | 430 kts | 313° |
| 2026-05-04 21:38 | 42.09870 | 21.48899 | 36145 ft | 430 kts | 313° |
| 2026-05-04 21:38 | 42.13825 | 21.42871 | 36142 ft | 430 kts | 313° |
| 2026-05-04 21:39 | 42.17770 | 21.36805 | 36151 ft | 430 kts | 312° |
| 2026-05-04 21:39 | 42.21653 | 21.30653 | 36151 ft | 431 kts | 312° |
| 2026-05-04 21:40 | 42.25536 | 21.24463 | 36154 ft | 432 kts | 312° |
| 2026-05-04 21:40 | 42.29421 | 21.18273 | 36157 ft | 432 kts | 312° |
| 2026-05-04 21:41 | 42.33307 | 21.12081 | 36147 ft | 432 kts | 312° |
| 2026-05-04 21:41 | 42.37193 | 21.05877 | 36159 ft | 432 kts | 312° |
| 2026-05-04 21:42 | 42.41080 | 20.99661 | 36161 ft | 432 kts | 312° |
| 2026-05-04 21:42 | 42.44962 | 20.93439 | 36164 ft | 432 kts | 312° |
| 2026-05-04 21:43 | 42.48839 | 20.87212 | 36158 ft | 433 kts | 312° |
| 2026-05-04 21:43 | 42.52717 | 20.80969 | 36162 ft | 433 kts | 311° |
| 2026-05-04 21:44 | 42.56581 | 20.74735 | 36158 ft | 431 kts | 311° |
| 2026-05-04 21:44 | 42.60415 | 20.68537 | 36157 ft | 430 kts | 311° |
| 2026-05-04 21:45 | 42.64261 | 20.62306 | 36160 ft | 430 kts | 311° |
| 2026-05-04 21:45 | 42.68098 | 20.56078 | 36159 ft | 429 kts | 311° |
| 2026-05-04 21:46 | 42.71926 | 20.49850 | 36159 ft | 429 kts | 311° |
| 2026-05-04 21:46 | 42.75746 | 20.43621 | 36159 ft | 428 kts | 311° |
| 2026-05-04 21:47 | 42.79559 | 20.37392 | 36153 ft | 428 kts | 311° |
| 2026-05-04 21:47 | 42.83397 | 20.31207 | 36165 ft | 427 kts | 315° |
| 2026-05-04 21:48 | 42.87890 | 20.25955 | 36176 ft | 426 kts | 322° |
| 2026-05-04 21:48 | 42.92506 | 20.20876 | 36169 ft | 427 kts | 322° |
| 2026-05-04 21:49 | 42.97112 | 20.15760 | 36169 ft | 427 kts | 321° |
| 2026-05-04 21:49 | 43.01721 | 20.10596 | 36161 ft | 428 kts | 321° |
| 2026-05-04 21:50 | 43.06315 | 20.05427 | 36173 ft | 428 kts | 321° |
| 2026-05-04 21:50 | 43.10921 | 20.00233 | 36168 ft | 428 kts | 321° |
| 2026-05-04 21:51 | 43.15512 | 19.95045 | 36175 ft | 428 kts | 321° |
| 2026-05-04 21:51 | 43.20080 | 19.89875 | 36175 ft | 429 kts | 321° |
| 2026-05-04 21:52 | 43.24676 | 19.84661 | 36163 ft | 429 kts | 321° |
| 2026-05-04 21:52 | 43.29267 | 19.79443 | 36154 ft | 429 kts | 321° |
| 2026-05-04 21:53 | 43.33859 | 19.74213 | 36162 ft | 429 kts | 321° |
| 2026-05-04 21:53 | 43.38455 | 19.68969 | 36154 ft | 429 kts | 321° |
| 2026-05-04 21:54 | 43.43044 | 19.63721 | 36161 ft | 429 kts | 321° |
| 2026-05-04 21:54 | 43.47632 | 19.58462 | 36142 ft | 429 kts | 321° |
| 2026-05-04 21:55 | 43.52211 | 19.53205 | 36143 ft | 429 kts | 321° |
| 2026-05-04 21:55 | 43.56801 | 19.47924 | 36132 ft | 429 kts | 321° |
| 2026-05-04 21:56 | 43.61390 | 19.42633 | 36124 ft | 430 kts | 321° |
| 2026-05-04 21:56 | 43.65978 | 19.37332 | 36124 ft | 430 kts | 320° |
| 2026-05-04 21:57 | 43.70533 | 19.32057 | 36107 ft | 430 kts | 320° |
| 2026-05-04 21:57 | 43.75120 | 19.26737 | 36112 ft | 430 kts | 320° |
| 2026-05-04 21:58 | 43.79642 | 19.21296 | 36107 ft | 431 kts | 317° |
| 2026-05-04 21:58 | 43.83984 | 19.15585 | 36105 ft | 431 kts | 316° |
| 2026-05-04 21:59 | 43.88317 | 19.09824 | 36105 ft | 432 kts | 317° |
| 2026-05-04 21:59 | 43.92680 | 19.04061 | 36101 ft | 432 kts | 316° |
| 2026-05-04 22:00 | 43.97047 | 18.98309 | 36101 ft | 433 kts | 317° |
| 2026-05-04 22:00 | 44.01421 | 18.92541 | 36106 ft | 434 kts | 317° |
| 2026-05-04 22:01 | 44.05798 | 18.86757 | 36094 ft | 434 kts | 316° |
| 2026-05-04 22:01 | 44.10177 | 18.80957 | 36086 ft | 435 kts | 316° |
| 2026-05-04 22:02 | 44.14560 | 18.75138 | 36090 ft | 435 kts | 316° |
| 2026-05-04 22:02 | 44.18936 | 18.69314 | 36095 ft | 435 kts | 316° |
| 2026-05-04 22:03 | 44.23309 | 18.63484 | 36096 ft | 435 kts | 316° |
| 2026-05-04 22:03 | 44.27684 | 18.57638 | 36082 ft | 436 kts | 316° |
| 2026-05-04 22:04 | 44.31954 | 18.51625 | 36080 ft | 436 kts | 312° |
| 2026-05-04 22:04 | 44.35232 | 18.46275 | 36079 ft | 436 kts | 310° |
| 2026-05-04 22:05 | 44.39113 | 18.39776 | 36071 ft | 436 kts | 310° |
| 2026-05-04 22:05 | 44.43018 | 18.33293 | 36077 ft | 436 kts | 310° |
| 2026-05-04 22:06 | 44.46942 | 18.26823 | 36058 ft | 436 kts | 310° |
| 2026-05-04 22:06 | 44.50868 | 18.20356 | 36071 ft | 436 kts | 310° |
| 2026-05-04 22:07 | 44.54789 | 18.13885 | 36063 ft | 436 kts | 310° |
| 2026-05-04 22:07 | 44.58710 | 18.07397 | 36059 ft | 436 kts | 310° |
| 2026-05-04 22:08 | 44.62631 | 18.00894 | 36058 ft | 436 kts | 310° |
| 2026-05-04 22:08 | 44.66546 | 17.94386 | 36058 ft | 436 kts | 310° |
| 2026-05-04 22:09 | 44.70451 | 17.87879 | 36057 ft | 436 kts | 310° |
| 2026-05-04 22:09 | 44.74326 | 17.81406 | 36058 ft | 435 kts | 310° |
| 2026-05-04 22:10 | 44.78224 | 17.74880 | 36060 ft | 435 kts | 310° |
| 2026-05-04 22:10 | 44.82123 | 17.68339 | 36062 ft | 436 kts | 309° |
| 2026-05-04 22:11 | 44.86017 | 17.61791 | 36064 ft | 436 kts | 309° |
| 2026-05-04 22:11 | 44.89910 | 17.55229 | 36069 ft | 436 kts | 309° |
| 2026-05-04 22:12 | 44.93796 | 17.48662 | 36074 ft | 436 kts | 309° |
| 2026-05-04 22:12 | 44.97685 | 17.42076 | 36071 ft | 436 kts | 309° |
| 2026-05-04 22:13 | 45.01568 | 17.35485 | 36048 ft | 436 kts | 309° |
| 2026-05-04 22:13 | 45.05444 | 17.28889 | 36055 ft | 436 kts | 309° |
| 2026-05-04 22:14 | 45.09319 | 17.22281 | 36053 ft | 436 kts | 309° |
| 2026-05-04 22:14 | 45.13204 | 17.15676 | 36048 ft | 437 kts | 311° |
| 2026-05-04 22:15 | 45.17650 | 17.09801 | 36051 ft | 438 kts | 318° |
| 2026-05-04 22:15 | 45.22283 | 17.04198 | 36050 ft | 438 kts | 318° |
| 2026-05-04 22:16 | 45.26905 | 16.98565 | 36051 ft | 438 kts | 318° |
| 2026-05-04 22:16 | 45.31507 | 16.92879 | 36050 ft | 439 kts | 317° |
| 2026-05-04 22:17 | 45.36100 | 16.87163 | 36048 ft | 439 kts | 317° |
| 2026-05-04 22:17 | 45.40694 | 16.81427 | 36045 ft | 440 kts | 317° |
| 2026-05-04 22:18 | 45.45288 | 16.75676 | 36047 ft | 440 kts | 317° |
| 2026-05-04 22:18 | 45.49887 | 16.69910 | 36047 ft | 440 kts | 317° |
| 2026-05-04 22:19 | 45.54486 | 16.64129 | 36043 ft | 441 kts | 317° |
| 2026-05-04 22:19 | 45.59080 | 16.58342 | 36046 ft | 441 kts | 317° |
| 2026-05-04 22:20 | 45.63675 | 16.52541 | 36042 ft | 441 kts | 317° |
| 2026-05-04 22:20 | 45.68235 | 16.46771 | 36047 ft | 441 kts | 317° |
| 2026-05-04 22:21 | 45.72822 | 16.40954 | 36048 ft | 441 kts | 317° |
| 2026-05-04 22:21 | 45.77432 | 16.35093 | 36048 ft | 441 kts | 317° |
| 2026-05-04 22:22 | 45.81983 | 16.29295 | 36045 ft | 441 kts | 316° |
| 2026-05-04 22:22 | 45.86567 | 16.23442 | 36050 ft | 441 kts | 316° |
| 2026-05-04 22:23 | 45.91144 | 16.17582 | 36046 ft | 441 kts | 316° |
| 2026-05-04 22:23 | 45.95720 | 16.11713 | 36044 ft | 441 kts | 316° |
| 2026-05-04 22:24 | 46.00296 | 16.05828 | 36045 ft | 441 kts | 316° |
| 2026-05-04 22:24 | 46.04872 | 15.99931 | 36034 ft | 442 kts | 316° |
| 2026-05-04 22:25 | 46.09447 | 15.94020 | 36040 ft | 442 kts | 316° |
| 2026-05-04 22:25 | 46.14023 | 15.88095 | 36036 ft | 443 kts | 316° |
| 2026-05-04 22:26 | 46.18610 | 15.82141 | 36033 ft | 444 kts | 316° |
| 2026-05-04 22:26 | 46.23198 | 15.76172 | 36025 ft | 444 kts | 316° |
| 2026-05-04 22:27 | 46.27789 | 15.70186 | 36024 ft | 445 kts | 316° |
| 2026-05-04 22:27 | 46.32384 | 15.64180 | 36020 ft | 445 kts | 316° |
| 2026-05-04 22:28 | 46.36979 | 15.58160 | 36017 ft | 445 kts | 316° |
| 2026-05-04 22:28 | 46.41569 | 15.52131 | 35998 ft | 445 kts | 316° |
| 2026-05-04 22:29 | 46.46157 | 15.46093 | 36002 ft | 445 kts | 316° |
| 2026-05-04 22:29 | 46.50743 | 15.40041 | 36003 ft | 445 kts | 316° |
| 2026-05-04 22:30 | 46.55323 | 15.33983 | 36008 ft | 445 kts | 316° |
| 2026-05-04 22:30 | 46.59870 | 15.27953 | 36022 ft | 445 kts | 316° |
| 2026-05-04 22:31 | 46.64454 | 15.21861 | 36018 ft | 446 kts | 316° |
| 2026-05-04 22:31 | 46.69037 | 15.15756 | 36023 ft | 447 kts | 315° |
| 2026-05-04 22:32 | 46.73622 | 15.09634 | 36017 ft | 447 kts | 315° |
| 2026-05-04 22:32 | 46.78207 | 15.03497 | 36014 ft | 447 kts | 315° |
| 2026-05-04 22:33 | 46.82785 | 14.97351 | 36037 ft | 447 kts | 315° |
| 2026-05-04 22:33 | 46.87356 | 14.91204 | 36020 ft | 446 kts | 314° |
| 2026-05-04 22:34 | 46.91916 | 14.85056 | 36023 ft | 445 kts | 315° |
| 2026-05-04 22:34 | 46.96468 | 14.78903 | 36034 ft | 445 kts | 315° |
| 2026-05-04 22:35 | 47.01018 | 14.72737 | 36036 ft | 446 kts | 315° |
| 2026-05-04 22:35 | 47.05568 | 14.66558 | 36039 ft | 447 kts | 315° |
| 2026-05-04 22:36 | 47.10127 | 14.60350 | 36038 ft | 447 kts | 315° |
| 2026-05-04 22:36 | 47.14689 | 14.54123 | 36028 ft | 448 kts | 315° |
| 2026-05-04 22:37 | 47.19259 | 14.47870 | 36026 ft | 449 kts | 314° |
| 2026-05-04 22:37 | 47.23795 | 14.41648 | 36028 ft | 449 kts | 314° |
| 2026-05-04 22:38 | 47.28363 | 14.35367 | 36020 ft | 450 kts | 314° |
| 2026-05-04 22:38 | 47.32931 | 14.29071 | 36025 ft | 450 kts | 314° |
| 2026-05-04 22:39 | 47.37495 | 14.22763 | 36022 ft | 450 kts | 314° |
| 2026-05-04 22:39 | 47.42064 | 14.16434 | 36014 ft | 450 kts | 314° |
| 2026-05-04 22:40 | 47.46629 | 14.10094 | 35999 ft | 450 kts | 314° |
| 2026-05-04 22:40 | 47.51187 | 14.03748 | 35997 ft | 450 kts | 314° |
| 2026-05-04 22:41 | 47.55744 | 13.97388 | 35981 ft | 450 kts | 314° |
| 2026-05-04 22:41 | 47.60306 | 13.91004 | 35988 ft | 451 kts | 314° |
| 2026-05-04 22:42 | 47.64865 | 13.84609 | 35964 ft | 451 kts | 314° |
| 2026-05-04 22:42 | 47.69424 | 13.78196 | 35965 ft | 452 kts | 314° |
| 2026-05-04 22:43 | 47.73955 | 13.71808 | 35952 ft | 452 kts | 314° |
| 2026-05-04 22:43 | 47.78515 | 13.65363 | 35956 ft | 452 kts | 314° |
| 2026-05-04 22:44 | 47.83077 | 13.58898 | 35950 ft | 453 kts | 313° |
| 2026-05-04 22:44 | 47.87642 | 13.52411 | 35942 ft | 454 kts | 313° |
| 2026-05-04 22:45 | 47.92206 | 13.45911 | 35933 ft | 454 kts | 313° |
| 2026-05-04 22:45 | 47.99034 | 13.36154 | 35927 ft | 453 kts | 313° |
| 2026-05-04 22:46 | 48.03583 | 13.29632 | 35930 ft | 453 kts | 313° |
| 2026-05-04 22:46 | 48.08135 | 13.23088 | 35924 ft | 454 kts | 313° |
| 2026-05-04 22:47 | 48.12679 | 13.16540 | 35931 ft | 454 kts | 313° |
| 2026-05-04 22:47 | 48.17225 | 13.09972 | 35923 ft | 454 kts | 313° |
| 2026-05-04 22:48 | 48.21769 | 13.03391 | 35926 ft | 454 kts | 313° |
| 2026-05-04 22:48 | 48.25683 | 12.98127 | 35929 ft | 456 kts | 317° |
| 2026-05-04 22:49 | 48.30622 | 12.92138 | 35937 ft | 457 kts | 318° |
| 2026-05-04 22:49 | 48.36396 | 12.85198 | 35936 ft | 457 kts | 318° |
| 2026-05-04 22:50 | 48.41342 | 12.79170 | 35927 ft | 458 kts | 318° |
| 2026-05-04 22:50 | 48.45479 | 12.74086 | 35929 ft | 458 kts | 318° |
| 2026-05-04 22:51 | 48.50405 | 12.68008 | 35933 ft | 458 kts | 318° |
| 2026-05-04 22:51 | 48.55299 | 12.61954 | 35931 ft | 458 kts | 318° |
| 2026-05-04 22:52 | 48.60220 | 12.55852 | 35938 ft | 458 kts | 317° |
| 2026-05-04 22:52 | 48.65137 | 12.49740 | 35942 ft | 458 kts | 317° |
| 2026-05-04 22:53 | 48.70052 | 12.43614 | 35941 ft | 458 kts | 317° |
| 2026-05-04 22:53 | 48.74966 | 12.37474 | 35941 ft | 458 kts | 317° |
| 2026-05-04 22:54 | 48.79876 | 12.31322 | 35943 ft | 458 kts | 317° |
| 2026-05-04 22:54 | 48.84784 | 12.25157 | 35938 ft | 458 kts | 317° |
| 2026-05-04 22:55 | 48.89697 | 12.18969 | 35937 ft | 458 kts | 317° |
| 2026-05-04 22:55 | 48.94603 | 12.12774 | 35927 ft | 458 kts | 317° |
| 2026-05-04 22:56 | 48.99504 | 12.06569 | 35934 ft | 458 kts | 317° |
| 2026-05-04 22:56 | 49.04405 | 12.00348 | 35935 ft | 458 kts | 317° |
| 2026-05-04 22:57 | 49.09302 | 11.94115 | 35946 ft | 459 kts | 317° |
| 2026-05-04 22:57 | 49.14170 | 11.87901 | 35956 ft | 459 kts | 317° |
| 2026-05-04 22:58 | 49.19071 | 11.81629 | 35946 ft | 460 kts | 317° |
| 2026-05-04 22:58 | 49.23975 | 11.75338 | 35935 ft | 460 kts | 317° |
| 2026-05-04 22:59 | 49.28878 | 11.69031 | 35926 ft | 461 kts | 317° |
| 2026-05-04 22:59 | 49.33780 | 11.62707 | 35945 ft | 461 kts | 316° |
| 2026-05-04 23:00 | 49.38684 | 11.56364 | 35938 ft | 461 kts | 316° |
| 2026-05-04 23:00 | 49.43593 | 11.49997 | 35951 ft | 462 kts | 316° |
| 2026-05-04 23:01 | 49.48503 | 11.43611 | 35949 ft | 462 kts | 316° |
| 2026-05-04 23:01 | 49.53410 | 11.37212 | 35948 ft | 463 kts | 316° |
| 2026-05-04 23:02 | 49.58323 | 11.30788 | 35952 ft | 463 kts | 316° |
| 2026-05-04 23:02 | 49.63235 | 11.24349 | 35949 ft | 463 kts | 316° |
| 2026-05-04 23:03 | 49.68144 | 11.17895 | 35953 ft | 463 kts | 316° |
| 2026-05-04 23:03 | 49.73041 | 11.11438 | 35951 ft | 463 kts | 315° |
| 2026-05-04 23:04 | 49.77937 | 11.04965 | 35961 ft | 463 kts | 315° |
| 2026-05-04 23:04 | 49.82799 | 10.98519 | 35959 ft | 462 kts | 315° |
| 2026-05-04 23:05 | 49.87677 | 10.92035 | 35967 ft | 462 kts | 315° |
| 2026-05-04 23:05 | 49.92549 | 10.85541 | 35950 ft | 462 kts | 315° |
| 2026-05-04 23:06 | 49.97420 | 10.79030 | 35937 ft | 461 kts | 315° |
| 2026-05-04 23:06 | 50.02277 | 10.72520 | 35944 ft | 461 kts | 315° |
| 2026-05-04 23:07 | 50.07124 | 10.66004 | 35944 ft | 461 kts | 315° |
| 2026-05-04 23:07 | 50.11968 | 10.59475 | 35948 ft | 460 kts | 315° |
| 2026-05-04 23:08 | 50.16811 | 10.52928 | 35950 ft | 461 kts | 315° |
| 2026-05-04 23:08 | 50.21656 | 10.46361 | 35957 ft | 461 kts | 314° |
| 2026-05-04 23:09 | 50.26489 | 10.39790 | 35959 ft | 461 kts | 314° |
| 2026-05-04 23:09 | 50.31332 | 10.33190 | 35959 ft | 461 kts | 314° |
| 2026-05-04 23:10 | 50.36107 | 10.26502 | 35956 ft | 458 kts | 309° |
| 2026-05-04 23:10 | 50.40299 | 10.19122 | 35973 ft | 456 kts | 306° |
| 2026-05-04 23:11 | 50.44407 | 10.11538 | 35984 ft | 457 kts | 306° |
| 2026-05-04 23:11 | 50.48560 | 10.03976 | 35976 ft | 457 kts | 306° |
| 2026-05-04 23:12 | 50.52737 | 9.96440 | 35971 ft | 458 kts | 306° |
| 2026-05-04 23:12 | 50.56925 | 9.88879 | 35965 ft | 458 kts | 306° |
| 2026-05-04 23:13 | 50.61096 | 9.81323 | 35983 ft | 457 kts | 306° |
| 2026-05-04 23:13 | 50.65265 | 9.73741 | 35972 ft | 458 kts | 306° |
| 2026-05-04 23:14 | 50.69436 | 9.66139 | 35972 ft | 458 kts | 306° |
| 2026-05-04 23:14 | 50.73191 | 9.58130 | 35976 ft | 450 kts | 293° |
| 2026-05-04 23:15 | 50.75478 | 9.49064 | 35982 ft | 444 kts | 284° |
| 2026-05-04 23:15 | 50.77507 | 9.39848 | 35991 ft | 444 kts | 284° |
| 2026-05-04 23:16 | 50.79561 | 9.30631 | 35986 ft | 445 kts | 285° |
| 2026-05-04 23:16 | 50.81625 | 9.21467 | 35981 ft | 446 kts | 285° |
| 2026-05-04 23:17 | 50.83707 | 9.12230 | 35983 ft | 446 kts | 285° |
| 2026-05-04 23:17 | 50.85785 | 9.02973 | 35984 ft | 446 kts | 285° |
| 2026-05-04 23:18 | 50.87856 | 8.93700 | 35981 ft | 446 kts | 285° |
| 2026-05-04 23:18 | 50.89919 | 8.84419 | 35986 ft | 446 kts | 285° |
| 2026-05-04 23:19 | 50.91975 | 8.75127 | 35981 ft | 446 kts | 284° |
| 2026-05-04 23:19 | 50.94026 | 8.65817 | 35981 ft | 446 kts | 284° |
| 2026-05-04 23:20 | 50.96063 | 8.56526 | 35981 ft | 446 kts | 284° |
| 2026-05-04 23:20 | 50.98096 | 8.47216 | 35993 ft | 446 kts | 284° |
| 2026-05-04 23:21 | 51.00123 | 8.37893 | 35985 ft | 447 kts | 284° |
| 2026-05-04 23:21 | 51.02427 | 8.28697 | 35971 ft | 453 kts | 295° |
| 2026-05-04 23:22 | 51.05907 | 8.20287 | 35989 ft | 457 kts | 300° |
| 2026-05-04 23:22 | 51.09502 | 8.11936 | 35980 ft | 457 kts | 300° |
| 2026-05-04 23:23 | 51.13067 | 8.03543 | 35989 ft | 458 kts | 299° |
| 2026-05-04 23:23 | 51.16574 | 7.95173 | 35972 ft | 457 kts | 299° |
| 2026-05-04 23:24 | 51.20088 | 7.86729 | 35979 ft | 457 kts | 298° |
| 2026-05-04 23:24 | 51.23592 | 7.78276 | 35968 ft | 457 kts | 298° |
| 2026-05-04 23:25 | 51.27090 | 7.69814 | 35972 ft | 456 kts | 298° |
| 2026-05-04 23:25 | 51.30576 | 7.61354 | 35974 ft | 456 kts | 298° |
| 2026-05-04 23:26 | 51.34058 | 7.52878 | 35984 ft | 456 kts | 298° |
| 2026-05-04 23:26 | 51.37533 | 7.44391 | 35970 ft | 456 kts | 298° |
| 2026-05-04 23:27 | 51.41000 | 7.35895 | 35961 ft | 456 kts | 298° |
| 2026-05-04 23:27 | 51.44461 | 7.27386 | 35956 ft | 455 kts | 298° |
| 2026-05-04 23:28 | 51.47908 | 7.18885 | 35963 ft | 455 kts | 298° |
| 2026-05-04 23:28 | 51.51351 | 7.10363 | 35955 ft | 455 kts | 298° |
| 2026-05-04 23:29 | 51.54794 | 7.01815 | 35955 ft | 455 kts | 298° |
| 2026-05-04 23:29 | 51.58225 | 6.93266 | 35952 ft | 456 kts | 298° |
| 2026-05-04 23:30 | 51.61657 | 6.84686 | 35962 ft | 456 kts | 298° |
| 2026-05-04 23:30 | 51.65064 | 6.76141 | 35968 ft | 456 kts | 299° |
| 2026-05-04 23:31 | 51.68488 | 6.67526 | 35956 ft | 457 kts | 299° |
| 2026-05-04 23:31 | 51.71910 | 6.58888 | 35948 ft | 457 kts | 299° |
| 2026-05-04 23:32 | 51.75325 | 6.50236 | 35945 ft | 457 kts | 299° |
| 2026-05-04 23:32 | 51.78735 | 6.41568 | 35945 ft | 457 kts | 298° |
| 2026-05-04 23:33 | 51.82138 | 6.32889 | 35944 ft | 457 kts | 298° |
| 2026-05-04 23:33 | 51.85533 | 6.24201 | 35947 ft | 457 kts | 299° |
| 2026-05-04 23:34 | 51.88351 | 6.16967 | 35948 ft | 457 kts | 299° |
| 2026-05-04 23:34 | 51.91730 | 6.08267 | 35950 ft | 456 kts | 299° |
| 2026-05-04 23:35 | 51.95094 | 5.99575 | 35952 ft | 454 kts | 299° |
| 2026-05-04 23:35 | 51.98983 | 5.89490 | 35955 ft | 454 kts | 299° |
| 2026-05-04 23:36 | 52.01779 | 5.82214 | 35971 ft | 453 kts | 299° |
| 2026-05-04 23:36 | 52.05102 | 5.73538 | 35968 ft | 452 kts | 299° |
| 2026-05-04 23:37 | 52.08419 | 5.64851 | 35964 ft | 452 kts | 299° |
| 2026-05-04 23:37 | 52.11724 | 5.56165 | 35971 ft | 451 kts | 299° |
| 2026-05-04 23:38 | 52.15021 | 5.47468 | 35979 ft | 451 kts | 299° |
| 2026-05-04 23:38 | 52.18309 | 5.38770 | 36001 ft | 451 kts | 299° |
| 2026-05-04 23:39 | 52.21584 | 5.30073 | 35989 ft | 450 kts | 299° |
| 2026-05-04 23:39 | 52.24825 | 5.21436 | 35972 ft | 449 kts | 299° |
| 2026-05-04 23:40 | 52.28073 | 5.12754 | 35988 ft | 448 kts | 299° |
| 2026-05-04 23:40 | 52.31312 | 5.04063 | 35993 ft | 448 kts | 299° |
| 2026-05-04 23:41 | 52.34544 | 4.95363 | 36000 ft | 447 kts | 299° |
| 2026-05-04 23:41 | 52.37766 | 4.86660 | 35989 ft | 447 kts | 298° |
| 2026-05-04 23:42 | 52.40985 | 4.77936 | 36002 ft | 447 kts | 298° |
| 2026-05-04 23:42 | 52.44192 | 4.69210 | 36004 ft | 447 kts | 298° |
| 2026-05-04 23:43 | 52.47395 | 4.60471 | 35991 ft | 447 kts | 298° |
| 2026-05-04 23:43 | 52.50587 | 4.51727 | 35996 ft | 447 kts | 298° |
| 2026-05-04 23:44 | 52.53774 | 4.42966 | 35997 ft | 447 kts | 298° |
| 2026-05-04 23:44 | 52.56952 | 4.34200 | 36002 ft | 446 kts | 298° |
| 2026-05-04 23:45 | 52.60127 | 4.25416 | 36006 ft | 446 kts | 298° |
| 2026-05-04 23:45 | 52.63092 | 4.16470 | 36017 ft | 445 kts | 293° |
| 2026-05-04 23:46 | 52.65718 | 4.07239 | 36007 ft | 444 kts | 292° |
| 2026-05-04 23:46 | 52.68294 | 3.98064 | 36022 ft | 445 kts | 293° |
| 2026-05-04 23:47 | 52.70915 | 3.88825 | 36021 ft | 445 kts | 293° |
| 2026-05-04 23:47 | 52.73545 | 3.79579 | 36022 ft | 445 kts | 293° |
| 2026-05-04 23:48 | 52.76173 | 3.70320 | 36021 ft | 445 kts | 293° |
| 2026-05-04 23:48 | 52.78792 | 3.61050 | 36033 ft | 445 kts | 293° |
| 2026-05-04 23:49 | 52.81404 | 3.51765 | 36048 ft | 445 kts | 293° |
| 2026-05-04 23:49 | 52.84012 | 3.42459 | 36034 ft | 446 kts | 293° |
| 2026-05-04 23:50 | 52.86616 | 3.33127 | 36037 ft | 447 kts | 293° |
| 2026-05-04 23:50 | 52.89215 | 3.23782 | 36035 ft | 447 kts | 293° |
| 2026-05-04 23:51 | 52.91732 | 3.14363 | 36024 ft | 447 kts | 288° |
| 2026-05-04 23:51 | 52.93177 | 3.04445 | 36029 ft | 445 kts | 281° |
| 2026-05-04 23:52 | 52.94432 | 2.94379 | 36030 ft | 446 kts | 281° |
| 2026-05-04 23:52 | 52.95716 | 2.84296 | 36034 ft | 447 kts | 281° |
| 2026-05-04 23:53 | 52.97021 | 2.74195 | 36036 ft | 448 kts | 281° |
| 2026-05-04 23:53 | 52.98325 | 2.64089 | 36038 ft | 448 kts | 281° |
| 2026-05-04 23:54 | 52.99623 | 2.53958 | 36036 ft | 449 kts | 281° |
| 2026-05-04 23:54 | 53.00913 | 2.43801 | 36033 ft | 450 kts | 281° |
| 2026-05-04 23:55 | 53.02195 | 2.33628 | 36042 ft | 450 kts | 281° |
| 2026-05-04 23:56 | 53.04108 | 2.18322 | 36043 ft | 451 kts | 281° |
| 2026-05-04 23:56 | 53.05374 | 2.08103 | 36040 ft | 451 kts | 281° |
| 2026-05-04 23:57 | 53.06623 | 1.97950 | 36039 ft | 452 kts | 281° |
| 2026-05-04 23:57 | 53.07877 | 1.87698 | 36048 ft | 452 kts | 281° |
| 2026-05-04 23:58 | 53.09122 | 1.77436 | 36042 ft | 453 kts | 281° |
| 2026-05-04 23:58 | 53.10367 | 1.67106 | 35433 ft | 459 kts | 281° |
| 2026-05-04 23:58 | 53.10987 | 1.61923 | 34790 ft | 456 kts | 281° |
| 2026-05-04 23:59 | 53.11605 | 1.56739 | 34125 ft | 457 kts | 282° |
| 2026-05-04 23:59 | 53.12222 | 1.51549 | 33364 ft | 458 kts | 282° |
| 2026-05-04 23:59 | 53.12834 | 1.46378 | 32870 ft | 452 kts | 282° |
| 2026-05-04 23:59 | 53.13437 | 1.41261 | 32359 ft | 448 kts | 282° |
| 2026-05-05 00:00 | 53.14031 | 1.36203 | 31892 ft | 443 kts | 281° |
| 2026-05-05 00:00 | 53.14231 | 1.34501 | 31722 ft | 441 kts | 281° |
| 2026-05-05 00:00 | 53.15195 | 1.26237 | 30937 ft | 434 kts | 281° |
| 2026-05-05 00:00 | 53.15765 | 1.21323 | 30474 ft | 429 kts | 281° |
| 2026-05-05 00:01 | 53.16327 | 1.16466 | 29998 ft | 425 kts | 280° |
| 2026-05-05 00:01 | 53.16882 | 1.11649 | 29471 ft | 420 kts | 280° |
| 2026-05-05 00:01 | 53.17426 | 1.06910 | 29005 ft | 414 kts | 280° |
| 2026-05-05 00:01 | 53.17960 | 1.02235 | 28538 ft | 408 kts | 280° |
| 2026-05-05 00:02 | 53.18487 | 0.97616 | 28047 ft | 404 kts | 280° |
| 2026-05-05 00:02 | 53.19006 | 0.93042 | 27594 ft | 399 kts | 280° |
| 2026-05-05 00:02 | 53.19518 | 0.88516 | 27135 ft | 395 kts | 280° |
| 2026-05-05 00:02 | 53.20022 | 0.84042 | 26680 ft | 391 kts | 280° |
| 2026-05-05 00:03 | 53.20519 | 0.79615 | 26233 ft | 387 kts | 279° |
| 2026-05-05 00:03 | 53.21011 | 0.75223 | 25767 ft | 383 kts | 279° |
| 2026-05-05 00:03 | 53.21495 | 0.70879 | 25345 ft | 379 kts | 279° |
| 2026-05-05 00:03 | 53.21969 | 0.66623 | 24921 ft | 376 kts | 279° |
| 2026-05-05 00:04 | 53.22442 | 0.62355 | 24485 ft | 372 kts | 279° |
| 2026-05-05 00:04 | 53.22909 | 0.58127 | 24070 ft | 368 kts | 279° |
| 2026-05-05 00:04 | 53.23367 | 0.53965 | 23736 ft | 363 kts | 279° |
| 2026-05-05 00:04 | 53.23821 | 0.49841 | 23256 ft | 360 kts | 279° |
| 2026-05-05 00:05 | 53.24268 | 0.45754 | 22797 ft | 356 kts | 279° |
| 2026-05-05 00:05 | 53.24709 | 0.41708 | 22355 ft | 353 kts | 279° |
| 2026-05-05 00:05 | 53.25142 | 0.37692 | 21925 ft | 350 kts | 279° |
| 2026-05-05 00:05 | 53.25570 | 0.33708 | 21480 ft | 348 kts | 279° |
| 2026-05-05 00:06 | 53.25995 | 0.29725 | 21046 ft | 349 kts | 279° |
| 2026-05-05 00:06 | 53.26420 | 0.25738 | 20615 ft | 349 kts | 279° |
| 2026-05-05 00:06 | 53.26846 | 0.21731 | 20198 ft | 353 kts | 279° |
| 2026-05-05 00:06 | 53.27277 | 0.17667 | 19758 ft | 357 kts | 279° |
| 2026-05-05 00:07 | 53.27709 | 0.13598 | 19324 ft | 355 kts | 279° |
| 2026-05-05 00:07 | 53.28135 | 0.09547 | 18883 ft | 353 kts | 279° |
| 2026-05-05 00:07 | 53.28564 | 0.05520 | 18454 ft | 351 kts | 281° |
| 2026-05-05 00:07 | 53.29238 | 0.01615 | 17966 ft | 350 kts | 290° |
| 2026-05-05 00:08 | 53.30268 | -0.02058 | 17520 ft | 347 kts | 295° |
| 2026-05-05 00:08 | 53.31325 | -0.05603 | 17078 ft | 345 kts | 295° |
| 2026-05-05 00:08 | 53.32405 | -0.09224 | 16656 ft | 342 kts | 295° |
| 2026-05-05 00:08 | 53.33441 | -0.12723 | 16231 ft | 339 kts | 294° |
| 2026-05-05 00:09 | 53.34479 | -0.16262 | 16081 ft | 341 kts | 294° |
| 2026-05-05 00:09 | 53.35525 | -0.19847 | 16045 ft | 343 kts | 294° |
| 2026-05-05 00:09 | 53.36562 | -0.23413 | 16035 ft | 339 kts | 294° |
| 2026-05-05 00:09 | 53.37590 | -0.26957 | 16035 ft | 338 kts | 294° |
| 2026-05-05 00:10 | 53.38618 | -0.30509 | 16038 ft | 339 kts | 294° |
| 2026-05-05 00:10 | 53.39647 | -0.34069 | 16040 ft | 340 kts | 294° |
| 2026-05-05 00:10 | 53.40677 | -0.37640 | 16040 ft | 340 kts | 294° |
| 2026-05-05 00:10 | 53.41708 | -0.41215 | 16041 ft | 341 kts | 294° |
| 2026-05-05 00:11 | 53.42737 | -0.44788 | 16040 ft | 341 kts | 294° |
| 2026-05-05 00:11 | 53.43767 | -0.48368 | 16046 ft | 341 kts | 294° |
| 2026-05-05 00:11 | 53.44795 | -0.51942 | 16038 ft | 339 kts | 294° |
| 2026-05-05 00:11 | 53.45808 | -0.55474 | 15799 ft | 334 kts | 294° |
| 2026-05-05 00:12 | 53.46803 | -0.58949 | 15299 ft | 329 kts | 294° |
| 2026-05-05 00:12 | 53.47793 | -0.62422 | 14637 ft | 328 kts | 294° |
| 2026-05-05 00:12 | 53.48763 | -0.65828 | 14277 ft | 317 kts | 294° |
| 2026-05-05 00:12 | 53.49687 | -0.69071 | 14096 ft | 300 kts | 294° |
| 2026-05-05 00:13 | 53.50574 | -0.72190 | 13765 ft | 291 kts | 294° |
| 2026-05-05 00:13 | 53.51428 | -0.75202 | 13446 ft | 282 kts | 294° |
| 2026-05-05 00:13 | 53.52260 | -0.78140 | 13042 ft | 276 kts | 294° |
| 2026-05-05 00:13 | 53.53081 | -0.81034 | 12554 ft | 274 kts | 294° |
| 2026-05-05 00:14 | 53.53901 | -0.83920 | 12064 ft | 273 kts | 294° |
| 2026-05-05 00:14 | 53.54717 | -0.86790 | 11576 ft | 271 kts | 294° |
| 2026-05-05 00:14 | 53.55471 | -0.89682 | 11109 ft | 269 kts | 284° |
| 2026-05-05 00:14 | 53.55700 | -0.92785 | 10640 ft | 267 kts | 272° |
| 2026-05-05 00:15 | 53.55744 | -0.95854 | 10199 ft | 265 kts | 271° |
| 2026-05-05 00:15 | 53.55761 | -0.98992 | 9720 ft | 264 kts | 270° |
| 2026-05-05 00:15 | 53.55772 | -1.02044 | 9268 ft | 266 kts | 270° |
| 2026-05-05 00:15 | 53.55778 | -1.05134 | 9080 ft | 262 kts | 270° |
| 2026-05-05 00:16 | 53.55783 | -1.08203 | 9035 ft | 261 kts | 270° |
| 2026-05-05 00:16 | 53.55787 | -1.11248 | 8886 ft | 259 kts | 270° |
| 2026-05-05 00:16 | 53.55792 | -1.14274 | 8559 ft | 259 kts | 270° |
| 2026-05-05 00:16 | 53.55796 | -1.17304 | 8227 ft | 260 kts | 270° |
| 2026-05-05 00:17 | 53.55802 | -1.20337 | 7949 ft | 259 kts | 270° |
| 2026-05-05 00:17 | 53.55808 | -1.23362 | 7664 ft | 258 kts | 270° |
| 2026-05-05 00:17 | 53.55815 | -1.26364 | 7399 ft | 257 kts | 270° |
| 2026-05-05 00:17 | 53.55828 | -1.29371 | 7124 ft | 256 kts | 272° |
| 2026-05-05 00:18 | 53.56282 | -1.32236 | 6848 ft | 256 kts | 301° |
| 2026-05-05 00:18 | 53.57514 | -1.34295 | 6756 ft | 249 kts | 330° |
| 2026-05-05 00:18 | 53.59140 | -1.35155 | 6658 ft | 243 kts | 348° |
| 2026-05-05 00:18 | 53.60792 | -1.35601 | 6531 ft | 238 kts | 350° |
| 2026-05-05 00:19 | 53.62410 | -1.35998 | 6398 ft | 232 kts | 350° |
| 2026-05-05 00:19 | 53.63992 | -1.36378 | 6217 ft | 228 kts | 350° |
| 2026-05-05 00:19 | 53.65540 | -1.36747 | 6064 ft | 220 kts | 350° |
| 2026-05-05 00:19 | 53.67041 | -1.37108 | 5790 ft | 216 kts | 348° |
| 2026-05-05 00:20 | 53.68386 | -1.38096 | 5444 ft | 211 kts | 317° |
| 2026-05-05 00:20 | 53.69094 | -1.39201 | 5270 ft | 208 kts | 317° |
| 2026-05-05 00:20 | 53.70179 | -1.40793 | 4982 ft | 204 kts | 318° |
| 2026-05-05 00:20 | 53.71233 | -1.42363 | 4705 ft | 200 kts | 317° |
| 2026-05-05 00:21 | 53.72252 | -1.43922 | 4414 ft | 195 kts | 316° |
| 2026-05-05 00:21 | 53.73244 | -1.45453 | 4150 ft | 191 kts | 316° |
| 2026-05-05 00:21 | 53.74211 | -1.46948 | 3903 ft | 185 kts | 316° |
| 2026-05-05 00:21 | 53.75146 | -1.48395 | 3644 ft | 180 kts | 316° |
| 2026-05-05 00:22 | 53.76055 | -1.49800 | 3406 ft | 174 kts | 316° |
| 2026-05-05 00:22 | 53.76937 | -1.51163 | 3169 ft | 169 kts | 316° |
| 2026-05-05 00:22 | 53.77798 | -1.52493 | 2942 ft | 166 kts | 316° |
| 2026-05-05 00:22 | 53.78650 | -1.53810 | 2721 ft | 166 kts | 317° |
| 2026-05-05 00:23 | 53.79497 | -1.55118 | 2496 ft | 162 kts | 317° |
| 2026-05-05 00:23 | 53.80302 | -1.56360 | 2305 ft | 150 kts | 317° |
| 2026-05-05 00:23 | 53.81067 | -1.57541 | 2079 ft | 147 kts | 316° |
| 2026-05-05 00:23 | 53.81815 | -1.58696 | 1870 ft | 144 kts | 316° |
| 2026-05-05 00:24 | 53.82550 | -1.59829 | 1674 ft | 143 kts | 316° |
| 2026-05-05 00:24 | 53.83287 | -1.60967 | 1465 ft | 144 kts | 316° |
| 2026-05-05 00:24 | 53.84035 | -1.62121 | 1258 ft | 147 kts | 316° |
| 2026-05-05 00:24 | 53.84791 | -1.63292 | 1052 ft | 147 kts | 316° |
| 2026-05-05 00:25 | 53.85551 | -1.64458 | 838 ft | 147 kts | 317° |
| 2026-05-05 00:25 | 53.86296 | -1.65597 | 679 ft | 141 kts | 314° |
| 2026-05-05 00:25 | 53.86825 | -1.66419 | 667 ft | 53 kts | 319° |
| 2026-05-05 00:25 | 53.86931 | -1.66582 | 670 ft | 10 kts | 317° |
| 2026-05-05 00:26 | 53.86973 | -1.66559 | 670 ft | 7 kts | 58° |
| 2026-05-05 00:26 | 53.86994 | -1.66489 | 672 ft | 7 kts | 78° |
| 2026-05-05 00:26 | 53.86984 | -1.66408 | 671 ft | 8 kts | 109° |
| 2026-05-05 00:26 | 53.86954 | -1.66315 | 668 ft | 11 kts | 122° |
| 2026-05-05 00:27 | 53.86892 | -1.66207 | 663 ft | 13 kts | 136° |
| 2026-05-05 00:27 | 53.86829 | -1.66103 | 665 ft | 13 kts | 130° |
| 2026-05-05 00:27 | 53.86813 | -1.65962 | 665 ft | 12 kts | 91° |
| 2026-05-05 00:27 | 53.86812 | -1.65819 | 664 ft | 12 kts | 90° |
| 2026-05-05 00:28 | 53.86818 | -1.65680 | 663 ft | 12 kts | 89° |
| 2026-05-05 00:28 | 53.86816 | -1.65542 | 663 ft | 12 kts | 91° |
| 2026-05-05 00:28 | 53.86821 | -1.65402 | 661 ft | 12 kts | 76° |
| 2026-05-05 00:28 | 53.86825 | -1.65301 | 660 ft | 7 kts | 90° |
| 2026-05-05 00:29 | 53.86833 | -1.65233 | 662 ft | 5 kts | 38° |
| 2026-05-05 00:29 | 53.86862 | -1.65221 | 664 ft | 2 kts | 359° |
| 2026-05-05 00:29 | 53.86868 | -1.65221 | 664 ft | 1 kts | 3° |
| 2026-05-05 00:29 | 53.86873 | -1.65220 | 664 ft | 0 kts | 2° |